^^
Your Local Weather - Clay, NY Station Historical Data
Daily Summary for February 14, 2017 Units:  English    Metric   Both
« Previous Day
Next Day »
Daily Weekly Monthly Yearly Custom
  High: Low: Average:
Temperature: 41.9 °F 19.9 °F 31.5 °F
Dew Point: 28.1 °F 17.5 °F 23.5 °F
Humidity: 91% 50% 74%
Wind Speed: 5.0mph 0.0mph 1.2mph
Wind Gust: 9.0mph - -
Wind- - SSE
Pressure: 29.98 in 29.52 in -
Precipitation: 0.57 in    
Historical Graphs
 
 
Tabular Data for February 14, 2017
Time Temperature Dew Point Pressure Wind Wind Speed Wind Gust Humidity Rainfall Rate (Hourly) solar
00:04 24.7 °F 21.4 °F 29.98 in Calm     87% 0.00 in 0 W/m2
00:10 24.6 °F 21.3 °F 29.98 in Calm     87% 0.00 in 0 W/m2
00:16 24.5 °F 21.5 °F 29.98 in Calm     88% 0.00 in 0 W/m2
00:22 24.3 °F 21.3 °F 29.98 in Calm     88% 0.00 in 0 W/m2
00:28 24.2 °F 21.2 °F 29.98 in Calm     88% 0.00 in 0 W/m2
00:34 24.1 °F 21.1 °F 29.98 in Calm     88% 0.00 in 0 W/m2
00:40 24.1 °F 21.3 °F 29.98 in Calm     89% 0.00 in 0 W/m2
00:46 24.1 °F 21.3 °F 29.98 in Calm     89% 0.00 in 0 W/m2
00:52 24.1 °F 21.3 °F 29.98 in Calm     89% 0.00 in 0 W/m2
00:58 24.0 °F 21.2 °F 29.98 in Calm     89% 0.00 in 0 W/m2
01:04 24.0 °F 21.2 °F 29.98 in Calm     89% 0.00 in 0 W/m2
01:10 24.1 °F 21.3 °F 29.98 in Calm     89% 0.00 in 0 W/m2
01:16 24.3 °F 21.5 °F 29.97 in Calm     89% 0.00 in 0 W/m2
01:22 24.6 °F 21.6 °F 29.97 in Calm   1.0 mph 88% 0.00 in 0 W/m2
01:28 24.7 °F 21.4 °F 29.97 in Calm   1.0 mph 87% 0.00 in 0 W/m2
01:34 24.7 °F 21.4 °F 29.97 in Calm   1.0 mph 87% 0.00 in 0 W/m2
01:40 24.8 °F 21.5 °F 29.97 in WNW 1.0 mph 1.0 mph 87% 0.00 in 0 W/m2
01:46 24.8 °F 21.2 °F 29.97 in Calm   1.0 mph 86% 0.00 in 0 W/m2
01:52 24.9 °F 21.3 °F 29.96 in Calm     86% 0.00 in 0 W/m2
01:58 24.9 °F 21.3 °F 29.96 in Calm     86% 0.00 in 0 W/m2
02:04 25.0 °F 21.4 °F 29.96 in Calm   2.0 mph 86% 0.00 in 0 W/m2
02:10 25.0 °F 21.1 °F 29.95 in Calm     85% 0.00 in 0 W/m2
02:16 25.0 °F 21.1 °F 29.95 in Calm     85% 0.00 in 0 W/m2
02:22 25.0 °F 21.1 °F 29.95 in Calm     85% 0.00 in 0 W/m2
02:28 25.0 °F 21.1 °F 29.95 in Calm     85% 0.00 in 0 W/m2
02:34 25.0 °F 21.1 °F 29.95 in Calm   1.0 mph 85% 0.00 in 0 W/m2
02:40 25.1 °F 21.2 °F 29.95 in Calm   1.0 mph 85% 0.00 in 0 W/m2
02:46 25.1 °F 21.2 °F 29.95 in Calm   1.0 mph 85% 0.00 in 0 W/m2
02:52 25.1 °F 21.2 °F 29.95 in Calm     85% 0.00 in 0 W/m2
02:58 25.0 °F 21.1 °F 29.94 in Calm     85% 0.00 in 0 W/m2
03:04 24.9 °F 21.0 °F 29.94 in Calm     85% 0.00 in 0 W/m2
03:10 24.9 °F 21.0 °F 29.94 in Calm     85% 0.00 in 0 W/m2
03:16 24.9 °F 21.0 °F 29.93 in Calm     85% 0.00 in 0 W/m2
03:22 24.8 °F 20.9 °F 29.93 in Calm     85% 0.00 in 0 W/m2
03:28 24.7 °F 21.1 °F 29.93 in Calm     86% 0.00 in 0 W/m2
03:34 24.7 °F 21.1 °F 29.93 in Calm     86% 0.00 in 0 W/m2
03:40 24.5 °F 21.2 °F 29.92 in Calm     87% 0.00 in 0 W/m2
03:46 24.3 °F 21.0 °F 29.92 in Calm     87% 0.00 in 0 W/m2
03:52 24.2 °F 21.2 °F 29.92 in Calm     88% 0.00 in 0 W/m2
03:58 24.1 °F 21.1 °F 29.93 in Calm     88% 0.00 in 0 W/m2
04:04 24.1 °F 21.3 °F 29.93 in Calm     89% 0.00 in 0 W/m2
04:10 24.1 °F 21.3 °F 29.93 in Calm     89% 0.00 in 0 W/m2
04:16 24.0 °F 21.2 °F 29.92 in Calm     89% 0.00 in 0 W/m2
04:22 23.9 °F 21.1 °F 29.93 in Calm     89% 0.00 in 0 W/m2
04:28 23.9 °F 21.1 °F 29.93 in Calm     89% 0.00 in 0 W/m2
04:34 23.8 °F 21.0 °F 29.93 in Calm     89% 0.00 in 0 W/m2
04:40 23.9 °F 21.1 °F 29.92 in Calm     89% 0.00 in 0 W/m2
04:46 23.8 °F 21.0 °F 29.92 in Calm     89% 0.00 in 0 W/m2
04:52 23.7 °F 20.9 °F 29.92 in Calm     89% 0.00 in 0 W/m2
04:58 23.4 °F 20.6 °F 29.92 in Calm     89% 0.00 in 0 W/m2
05:04 22.8 °F 20.0 °F 29.92 in Calm     89% 0.00 in 0 W/m2
05:10 22.5 °F 19.5 °F 29.92 in Calm     88% 0.00 in 0 W/m2
05:16 22.2 °F 19.5 °F 29.92 in Calm     89% 0.00 in 0 W/m2
05:22 21.9 °F 19.2 °F 29.92 in Calm     89% 0.00 in 0 W/m2
05:28 21.7 °F 19.0 °F 29.91 in Calm     89% 0.00 in 0 W/m2
05:36 21.6 °F 19.1 °F 29.92 in Calm     90% 0.00 in 0 W/m2
05:42 21.5 °F 19.0 °F 29.91 in Calm     90% 0.00 in 0 W/m2
05:48 21.5 °F 19.0 °F 29.91 in Calm     90% 0.00 in 0 W/m2
05:54 21.5 °F 19.0 °F 29.91 in Calm     90% 0.00 in 0 W/m2
06:00 21.5 °F 19.0 °F 29.90 in Calm     90% 0.00 in 0 W/m2
06:06 21.3 °F 18.8 °F 29.90 in Calm     90% 0.00 in 0 W/m2
06:12 20.9 °F 18.4 °F 29.90 in Calm     90% 0.00 in 0 W/m2
06:18 20.7 °F 18.2 °F 29.90 in Calm     90% 0.00 in 0 W/m2
06:24 20.5 °F 18.0 °F 29.90 in Calm     90% 0.00 in 0 W/m2
06:30 20.4 °F 17.9 °F 29.90 in Calm     90% 0.00 in 0 W/m2
06:36 20.4 °F 17.9 °F 29.89 in Calm     90% 0.00 in 0 W/m2
06:42 20.3 °F 17.8 °F 29.89 in Calm     90% 0.00 in 0 W/m2
06:48 20.1 °F 17.9 °F 29.89 in Calm     91% 0.00 in 0 W/m2
06:54 20.0 °F 17.5 °F 29.89 in Calm     90% 0.00 in 0 W/m2
07:00 19.9 °F 17.7 °F 29.88 in Calm     91% 0.00 in 0 W/m2
07:06 20.0 °F 17.8 °F 29.88 in Calm     91% 0.00 in 0 W/m2
07:12 20.3 °F 18.1 °F 29.88 in Calm     91% 0.00 in 0 W/m2
07:18 20.4 °F 18.2 °F 29.88 in Calm     91% 0.00 in 0 W/m2
07:24 20.4 °F 18.2 °F 29.88 in Calm     91% 0.00 in 0 W/m2
07:30 21.3 °F 19.1 °F 29.88 in Calm   2.0 mph 91% 0.00 in 0 W/m2
07:36 22.0 °F 19.8 °F 29.88 in Calm   2.0 mph 91% 0.00 in 0 W/m2
07:42 22.2 °F 20.0 °F 29.87 in Calm   1.0 mph 91% 0.00 in 5 W/m2
07:48 22.3 °F 20.1 °F 29.87 in Calm   1.0 mph 91% 0.00 in 5 W/m2
07:54 22.8 °F 20.3 °F 29.87 in WNW 1.0 mph 2.0 mph 90% 0.00 in 7 W/m2
08:00 22.5 °F 19.7 °F 29.87 in WNW 1.0 mph 1.0 mph 89% 0.00 in 18 W/m2
08:06 22.7 °F 19.9 °F 29.87 in Calm   1.0 mph 89% 0.00 in 26 W/m2
08:12 23.9 °F 21.1 °F 29.88 in WNW 1.0 mph 1.0 mph 89% 0.00 in 16 W/m2
08:18 24.8 °F 21.5 °F 29.87 in SE 1.0 mph 3.0 mph 87% 0.00 in 18 W/m2
08:24 25.1 °F 21.5 °F 29.86 in SE 1.0 mph 3.0 mph 86% 0.00 in 18 W/m2
08:32 25.5 °F 21.6 °F 29.87 in Calm   1.0 mph 85% 0.00 in 19 W/m2
08:38 25.7 °F 21.8 °F 29.87 in SE 1.0 mph 1.0 mph 85% 0.00 in 25 W/m2
08:44 26.1 °F 21.9 °F 29.86 in SE 1.0 mph 2.0 mph 84% 0.00 in 26 W/m2
08:50 26.3 °F 21.8 °F 29.86 in SE 1.0 mph 1.0 mph 83% 0.00 in 25 W/m2
08:56 26.5 °F 21.7 °F 29.86 in SE 1.0 mph 3.0 mph 82% 0.00 in 28 W/m2
09:02 27.0 °F 22.2 °F 29.85 in SE 1.0 mph 2.0 mph 82% 0.00 in 40 W/m2
09:08 27.6 °F 22.2 °F 29.85 in SE 1.0 mph 4.0 mph 80% 0.00 in 37 W/m2
09:14 27.8 °F 22.1 °F 29.84 in SE 2.0 mph 3.0 mph 79% 0.00 in 40 W/m2
09:20 27.8 °F 22.1 °F 29.84 in SE 2.0 mph 3.0 mph 79% 0.00 in 30 W/m2
09:26 28.0 °F 22.3 °F 29.84 in SE 2.0 mph 3.0 mph 79% 0.00 in 30 W/m2
09:32 28.0 °F 22.3 °F 29.84 in SE 2.0 mph 2.0 mph 79% 0.00 in 30 W/m2
09:38 28.0 °F 22.0 °F 29.83 in SSE 2.0 mph 3.0 mph 78% 0.00 in 32 W/m2
09:44 28.0 °F 22.0 °F 29.83 in SE 2.0 mph 6.0 mph 78% 0.00 in 37 W/m2
09:50 28.2 °F 22.2 °F 29.83 in SE 2.0 mph 2.0 mph 78% 0.00 in 37 W/m2
09:56 28.5 °F 22.2 °F 29.82 in SE 2.0 mph 3.0 mph 77% 0.00 in 37 W/m2
10:02 28.7 °F 22.4 °F 29.82 in SE 2.0 mph 2.0 mph 77% 0.00 in 37 W/m2
10:08 28.8 °F 22.5 °F 29.82 in SSE 2.0 mph 5.0 mph 77% 0.00 in 39 W/m2
10:14 29.0 °F 22.4 °F 29.81 in SE 2.0 mph 5.0 mph 76% 0.00 in 40 W/m2
10:20 29.2 °F 22.6 °F 29.81 in SE 2.0 mph 4.0 mph 76% 0.00 in 42 W/m2
10:26 29.5 °F 22.6 °F 29.81 in South 2.0 mph 4.0 mph 75% 0.00 in 40 W/m2
10:32 29.6 °F 22.6 °F 29.81 in SE 2.0 mph 2.0 mph 75% 0.00 in 37 W/m2
10:38 29.7 °F 22.4 °F 29.80 in SE 2.0 mph 6.0 mph 74% 0.00 in 40 W/m2
10:44 29.8 °F 22.8 °F 29.80 in SSE 2.0 mph 3.0 mph 75% 0.00 in 44 W/m2
10:50 30.0 °F 22.7 °F 29.80 in SE 3.0 mph 4.0 mph 74% 0.00 in 49 W/m2
10:56 30.4 °F 23.1 °F 29.80 in SE 3.0 mph 4.0 mph 74% 0.00 in 53 W/m2
11:02 30.7 °F 23.1 °F 29.79 in SE 3.0 mph 6.0 mph 73% 0.00 in 63 W/m2
11:08 31.3 °F 23.3 °F 29.78 in SE 4.0 mph 6.0 mph 72% 0.00 in 83 W/m2
11:14 31.9 °F 23.2 °F 29.78 in SSE 4.0 mph 5.0 mph 70% 0.00 in 84 W/m2
11:20 32.5 °F 23.5 °F 29.77 in East 4.0 mph 5.0 mph 69% 0.00 in 53 W/m2
11:26 32.7 °F 22.9 °F 29.77 in South 5.0 mph 7.0 mph 67% 0.00 in 74 W/m2
11:32 33.0 °F 23.2 °F 29.76 in South 5.0 mph 5.0 mph 67% 0.00 in 86 W/m2
11:38 33.3 °F 23.2 °F 29.76 in SSE 5.0 mph 7.0 mph 66% 0.00 in 107 W/m2
11:44 33.5 °F 23.7 °F 29.75 in SE 5.0 mph 6.0 mph 67% 0.00 in 116 W/m2
11:50 34.2 °F 23.7 °F 29.75 in SE 4.0 mph 6.0 mph 65% 0.06 in 86 W/m2
11:56 34.0 °F 23.5 °F 29.74 in SE 5.0 mph 8.0 mph 65% 0.06 in 90 W/m2
12:02 33.9 °F 23.7 °F 29.74 in SSE 5.0 mph 6.0 mph 66% 0.06 in 93 W/m2
12:08 34.4 °F 24.2 °F 29.73 in ESE 5.0 mph 6.0 mph 66% 0.08 in 97 W/m2
12:14 34.7 °F 24.1 °F 29.73 in SSE 4.0 mph 5.0 mph 65% 0.07 in 91 W/m2
12:20 34.8 °F 23.9 °F 29.72 in SE 4.0 mph 4.0 mph 64% 0.07 in 111 W/m2
12:26 35.1 °F 24.5 °F 29.72 in SE 3.0 mph 5.0 mph 65% 0.09 in 111 W/m2
12:32 35.5 °F 24.5 °F 29.71 in East 4.0 mph 4.0 mph 64% 0.07 in 114 W/m2
12:38 35.8 °F 24.0 °F 29.71 in SE 3.0 mph 4.0 mph 62% 0.09 in 141 W/m2
12:44 35.9 °F 24.5 °F 29.70 in SE 3.0 mph 5.0 mph 63% 0.08 in 183 W/m2
12:50 37.0 °F 24.8 °F 29.70 in South 3.0 mph 3.0 mph 61% 0.07 in 179 W/m2
12:56 37.6 °F 24.6 °F 29.70 in South 3.0 mph 5.0 mph 59% 0.10 in 378 W/m2
13:02 37.9 °F 25.2 °F 29.69 in South 4.0 mph 4.0 mph 60% 0.13 in 566 W/m2
13:08 38.0 °F 24.5 °F 29.69 in SSE 4.0 mph 4.0 mph 58% 0.11 in 559 W/m2
13:14 38.0 °F 24.5 °F 29.68 in SE 4.0 mph 5.0 mph 58% 0.17 in 548 W/m2
13:20 38.3 °F 24.4 °F 29.68 in SSE 3.0 mph 5.0 mph 57% 0.17 in 550 W/m2
13:26 38.1 °F 25.0 °F 29.67 in SE 4.0 mph 7.0 mph 59% 0.14 in 545 W/m2
13:32 38.3 °F 24.8 °F 29.67 in SSE 5.0 mph 6.0 mph 58% 0.15 in 559 W/m2
13:38 38.7 °F 25.2 °F 29.66 in SSE 5.0 mph 8.0 mph 58% 0.16 in 555 W/m2
13:44 39.0 °F 25.0 °F 29.66 in SSE 4.0 mph 5.0 mph 57% 0.18 in 550 W/m2
13:50 39.8 °F 25.8 °F 29.66 in SSW 3.0 mph 3.0 mph 57% 0.17 in 552 W/m2
13:56 39.8 °F 25.4 °F 29.65 in WSW 3.0 mph 3.0 mph 56% 0.15 in 570 W/m2
14:02 39.9 °F 23.7 °F 29.65 in South 4.0 mph 8.0 mph 52% 0.14 in 527 W/m2
14:08 39.5 °F 25.1 °F 29.65 in SSW 5.0 mph 9.0 mph 56% 0.15 in 439 W/m2
14:14 39.5 °F 24.7 °F 29.65 in South 5.0 mph 6.0 mph 55% 0.18 in 431 W/m2
14:20 39.5 °F 25.1 °F 29.65 in South 3.0 mph 3.0 mph 56% 0.18 in 295 W/m2
14:26 39.2 °F 24.4 °F 29.65 in South 3.0 mph 6.0 mph 55% 0.11 in 234 W/m2
14:32 39.4 °F 24.6 °F 29.65 in SW 3.0 mph 4.0 mph 55% 0.13 in 246 W/m2
14:38 39.8 °F 24.5 °F 29.64 in South 3.0 mph 4.0 mph 54% 0.08 in 656 W/m2
14:44 40.7 °F 24.9 °F 29.64 in South 4.0 mph 6.0 mph 53% 0.11 in 476 W/m2
14:50 40.9 °F 24.6 °F 29.64 in SSE 4.0 mph 4.0 mph 52% 0.16 in 478 W/m2
14:56 41.0 °F 25.2 °F 29.64 in SE 3.0 mph 5.0 mph 53% 0.12 in 471 W/m2
15:02 40.4 °F 25.1 °F 29.64 in SE 4.0 mph 4.0 mph 54% 0.14 in 272 W/m2
15:08 40.7 °F 25.3 °F 29.63 in SE 3.0 mph 5.0 mph 54% 0.12 in 503 W/m2
15:14 41.2 °F 25.3 °F 29.63 in SSE 3.0 mph 3.0 mph 53% 0.11 in 390 W/m2
15:20 41.9 °F 25.1 °F 29.62 in SSW 2.0 mph 2.0 mph 51% 0.14 in 369 W/m2
15:26 41.5 °F 25.2 °F 29.62 in South 3.0 mph 5.0 mph 52% 0.12 in 350 W/m2
15:32 41.2 °F 23.9 °F 29.62 in SE 4.0 mph 5.0 mph 50% 0.12 in 334 W/m2
15:38 41.2 °F 24.4 °F 29.62 in SSE 5.0 mph 6.0 mph 51% 0.09 in 318 W/m2
15:44 41.0 °F 24.2 °F 29.62 in South 5.0 mph 8.0 mph 51% 0.09 in 301 W/m2
15:50 40.9 °F 24.1 °F 29.62 in SSW 5.0 mph 5.0 mph 51% 0.08 in 281 W/m2
15:56 41.2 °F 24.4 °F 29.62 in SSW 5.0 mph 7.0 mph 51% 0.07 in 278 W/m2
16:02 41.1 °F 24.8 °F 29.62 in SSE 4.0 mph 4.0 mph 52% 0.09 in 220 W/m2
16:08 40.8 °F 25.4 °F 29.62 in SSE 2.0 mph 4.0 mph 54% 0.06 in 118 W/m2
16:14 40.5 °F 24.7 °F 29.62 in SSE 2.0 mph 3.0 mph 53% 0.06 in 83 W/m2
16:20 40.3 °F 24.5 °F 29.61 in South 3.0 mph 3.0 mph 53% 0.06 in 77 W/m2
16:26 40.2 °F 24.9 °F 29.61 in South 3.0 mph 3.0 mph 54% 0.06 in 79 W/m2
16:32 39.9 °F 25.0 °F 29.61 in SSE 1.0 mph 4.0 mph 55% 0.05 in 69 W/m2
16:38 40.0 °F 25.1 °F 29.60 in SSE 2.0 mph 5.0 mph 55% 0.00 in 65 W/m2
16:44 39.9 °F 25.5 °F 29.60 in SSE 3.0 mph 3.0 mph 56% 0.00 in 60 W/m2
16:50 39.7 °F 25.7 °F 29.60 in SSE 1.0 mph 1.0 mph 57% 0.00 in 58 W/m2
16:56 39.4 °F 25.4 °F 29.60 in Calm   1.0 mph 57% 0.00 in 53 W/m2
17:02 39.1 °F 25.6 °F 29.61 in Calm     58% 0.00 in 30 W/m2
17:08 38.9 °F 25.4 °F 29.61 in Calm   2.0 mph 58% 0.00 in 21 W/m2
17:14 38.6 °F 25.9 °F 29.61 in Calm     60% 0.00 in 18 W/m2
17:20 38.1 °F 26.2 °F 29.61 in Calm     62% 0.00 in 9 W/m2
17:26 37.5 °F 27.5 °F 29.61 in Calm     67% 0.00 in 5 W/m2
17:32 37.0 °F 27.1 °F 29.61 in Calm     67% 0.00 in 0 W/m2
17:38 36.7 °F 27.1 °F 29.60 in Calm     68% 0.00 in 0 W/m2
17:44 36.6 °F 27.0 °F 29.60 in Calm   1.0 mph 68% 0.00 in 0 W/m2
17:50 36.6 °F 26.3 °F 29.60 in Calm     66% 0.00 in 0 W/m2
17:56 37.1 °F 26.4 °F 29.60 in SSE 1.0 mph 3.0 mph 65% 0.00 in 0 W/m2
18:03 37.0 °F 26.7 °F 29.60 in SSE 1.0 mph 1.0 mph 66% 0.00 in 0 W/m2
18:08 37.3 °F 26.2 °F 29.60 in SSE 1.0 mph 2.0 mph 64% 0.00 in 0 W/m2
18:14 37.6 °F 26.5 °F 29.60 in SSE 1.0 mph 1.0 mph 64% 0.00 in 0 W/m2
18:20 37.7 °F 26.2 °F 29.60 in SE 1.0 mph 3.0 mph 63% 0.00 in 0 W/m2
18:26 37.6 °F 26.5 °F 29.60 in SSE 1.0 mph 3.0 mph 64% 0.00 in 0 W/m2
18:32 37.4 °F 27.1 °F 29.60 in SSE 1.0 mph 2.0 mph 66% 0.00 in 0 W/m2
18:38 37.1 °F 26.8 °F 29.60 in Calm   2.0 mph 66% 0.00 in 0 W/m2
18:44 37.0 °F 26.7 °F 29.60 in SSE 1.0 mph 2.0 mph 66% 0.00 in 0 W/m2
18:50 37.1 °F 27.2 °F 29.60 in SSE 1.0 mph 1.0 mph 67% 0.00 in 0 W/m2
18:56 36.9 °F 27.0 °F 29.60 in Calm   1.0 mph 67% 0.00 in 0 W/m2
19:02 37.1 °F 26.4 °F 29.59 in SSE 1.0 mph 2.0 mph 65% 0.00 in 0 W/m2
19:08 37.3 °F 26.6 °F 29.59 in SE 1.0 mph 2.0 mph 65% 0.00 in 0 W/m2
19:14 37.4 °F 26.7 °F 29.58 in SE 1.0 mph 1.0 mph 65% 0.00 in 0 W/m2
19:20 37.6 °F 26.5 °F 29.59 in SE 1.0 mph 2.0 mph 64% 0.00 in 0 W/m2
19:26 37.9 °F 26.4 °F 29.58 in SSE 1.0 mph 3.0 mph 63% 0.00 in 0 W/m2
19:32 38.1 °F 25.8 °F 29.58 in SSE 1.0 mph 1.0 mph 61% 0.00 in 0 W/m2
19:38 38.2 °F 25.9 °F 29.58 in South 1.0 mph 1.0 mph 61% 0.00 in 0 W/m2
19:44 38.2 °F 26.3 °F 29.58 in South 1.0 mph 1.0 mph 62% 0.00 in 0 W/m2
19:50 38.1 °F 26.2 °F 29.58 in Calm     62% 0.00 in 0 W/m2
19:56 38.1 °F 26.2 °F 29.58 in Calm     62% 0.00 in 0 W/m2
20:02 37.8 °F 25.9 °F 29.58 in Calm   1.0 mph 62% 0.00 in 0 W/m2
20:08 38.0 °F 26.5 °F 29.60 in WSW 1.0 mph 2.0 mph 63% 0.00 in 0 W/m2
20:14 37.9 °F 26.4 °F 29.60 in WSW 1.0 mph 1.0 mph 63% 0.00 in 0 W/m2
20:20 37.9 °F 26.4 °F 29.60 in WSW 1.0 mph 1.0 mph 63% 0.00 in 0 W/m2
20:26 37.9 °F 26.4 °F 29.59 in Calm   1.0 mph 63% 0.00 in 0 W/m2
20:32 37.8 °F 26.3 °F 29.59 in Calm     63% 0.00 in 0 W/m2
20:38 37.9 °F 26.4 °F 29.59 in Calm     63% 0.00 in 0 W/m2
20:44 37.8 °F 26.7 °F 29.59 in Calm     64% 0.00 in 0 W/m2
20:50 37.9 °F 26.4 °F 29.58 in WSW 1.0 mph 1.0 mph 63% 0.00 in 0 W/m2
20:56 37.8 °F 26.7 °F 29.58 in WSW 1.0 mph 1.0 mph 64% 0.00 in 0 W/m2
21:02 37.6 °F 26.9 °F 29.58 in Calm     65% 0.00 in 0 W/m2
21:08 37.7 °F 27.0 °F 29.57 in Calm   1.0 mph 65% 0.00 in 0 W/m2
21:14 37.8 °F 27.1 °F 29.57 in SW 1.0 mph 1.0 mph 65% 0.00 in 0 W/m2
21:20 38.0 °F 27.3 °F 29.57 in South 1.0 mph 1.0 mph 65% 0.00 in 0 W/m2
21:26 38.1 °F 27.0 °F 29.57 in South 1.0 mph 3.0 mph 64% 0.00 in 0 W/m2
21:32 38.2 °F 27.1 °F 29.57 in South 1.0 mph 2.0 mph 64% 0.00 in 0 W/m2
21:38 38.2 °F 27.1 °F 29.57 in South 1.0 mph 2.0 mph 64% 0.00 in 0 W/m2
21:44 38.1 °F 27.4 °F 29.56 in South 1.0 mph 1.0 mph 65% 0.00 in 0 W/m2
21:50 37.9 °F 27.2 °F 29.56 in Calm     65% 0.00 in 0 W/m2
21:56 37.8 °F 27.1 °F 29.56 in Calm     65% 0.00 in 0 W/m2
22:02 37.6 °F 27.3 °F 29.56 in Calm     66% 0.00 in 0 W/m2
22:08 37.2 °F 27.6 °F 29.56 in Calm     68% 0.00 in 0 W/m2
22:14 36.9 °F 27.7 °F 29.56 in Calm     69% 0.00 in 0 W/m2
22:22 36.1 °F 27.9 °F 29.56 in Calm     72% 0.00 in 0 W/m2
22:28 35.5 °F 27.4 °F 29.56 in Calm     72% 0.00 in 0 W/m2
22:34 35.2 °F 27.4 °F 29.55 in Calm     73% 0.00 in 0 W/m2
22:40 34.9 °F 27.5 °F 29.55 in Calm     74% 0.00 in 0 W/m2
22:46 34.5 °F 27.4 °F 29.55 in Calm     75% 0.00 in 0 W/m2
22:52 34.2 °F 27.4 °F 29.54 in Calm     76% 0.00 in 0 W/m2
22:58 34.1 °F 27.3 °F 29.54 in Calm     76% 0.00 in 0 W/m2
23:04 34.0 °F 27.5 °F 29.54 in Calm     77% 0.00 in 0 W/m2
23:10 33.9 °F 27.4 °F 29.54 in Calm     77% 0.00 in 0 W/m2
23:16 33.8 °F 27.7 °F 29.54 in Calm     78% 0.00 in 0 W/m2
23:22 33.7 °F 27.9 °F 29.54 in Calm     79% 0.00 in 0 W/m2
23:28 33.7 °F 27.9 °F 29.54 in Calm     79% 0.00 in 0 W/m2
23:34 33.6 °F 28.1 °F 29.53 in Calm     80% 0.00 in 0 W/m2
23:40 33.4 °F 27.9 °F 29.53 in Calm     80% 0.00 in 0 W/m2
23:46 33.3 °F 28.1 °F 29.53 in Calm     81% 0.00 in 0 W/m2
23:52 33.2 °F 28.0 °F 29.53 in Calm     81% 0.00 in 0 W/m2
23:58 33.1 °F 27.9 °F 29.52 in Calm     81% 0.00 in 0 W/m2
Country Meadow, Clay, NY, USA
Compliments of Weather Underground - 2 mb